sensor_id;sensor_type;location;lat;lon;timestamp;temperature;humidity
12115;DHT22;6121;49.810;6.418;2022-08-24T00:00:19;18.80;99.90
12115;DHT22;6121;49.810;6.418;2022-08-24T00:02:46;18.80;99.90
12115;DHT22;6121;49.810;6.418;2022-08-24T00:05:12;18.90;99.90
12115;DHT22;6121;49.810;6.418;2022-08-24T00:07:38;18.80;99.90
12115;DHT22;6121;49.810;6.418;2022-08-24T00:10:06;18.70;99.90
12115;DHT22;6121;49.810;6.418;2022-08-24T00:12:32;19.00;99.90
12115;DHT22;6121;49.810;6.418;2022-08-24T00:14:58;19.30;99.90
12115;DHT22;6121;49.810;6.418;2022-08-24T00:17:23;19.20;99.90
12115;DHT22;6121;49.810;6.418;2022-08-24T00:19:49;18.80;99.90
12115;DHT22;6121;49.810;6.418;2022-08-24T00:22:15;18.80;99.90
12115;DHT22;6121;49.810;6.418;2022-08-24T00:24:41;18.90;99.90
12115;DHT22;6121;49.810;6.418;2022-08-24T00:27:07;18.90;99.90
12115;DHT22;6121;49.810;6.418;2022-08-24T00:29:33;18.80;99.90
12115;DHT22;6121;49.810;6.418;2022-08-24T00:31:59;18.70;99.90
12115;DHT22;6121;49.810;6.418;2022-08-24T00:34:25;18.80;99.90
12115;DHT22;6121;49.810;6.418;2022-08-24T00:36:52;18.50;99.90
12115;DHT22;6121;49.810;6.418;2022-08-24T00:39:18;18.40;99.90
12115;DHT22;6121;49.810;6.418;2022-08-24T00:41:46;18.20;99.90
12115;DHT22;6121;49.810;6.418;2022-08-24T00:44:13;18.30;99.90
12115;DHT22;6121;49.810;6.418;2022-08-24T00:46:58;18.50;99.90
12115;DHT22;6121;49.810;6.418;2022-08-24T00:49:26;18.60;99.90
12115;DHT22;6121;49.810;6.418;2022-08-24T00:52:10;18.30;99.90
12115;DHT22;6121;49.810;6.418;2022-08-24T00:54:43;18.30;99.90
12115;DHT22;6121;49.810;6.418;2022-08-24T00:57:11;18.20;99.90
12115;DHT22;6121;49.810;6.418;2022-08-24T00:59:42;18.10;99.90
12115;DHT22;6121;49.810;6.418;2022-08-24T01:02:14;18.20;99.90
12115;DHT22;6121;49.810;6.418;2022-08-24T01:04:50;18.00;99.90
12115;DHT22;6121;49.810;6.418;2022-08-24T01:07:17;18.10;99.90
12115;DHT22;6121;49.810;6.418;2022-08-24T01:09:42;18.10;99.90
12115;DHT22;6121;49.810;6.418;2022-08-24T01:12:08;18.20;99.90
12115;DHT22;6121;49.810;6.418;2022-08-24T01:14:35;18.00;99.90
12115;DHT22;6121;49.810;6.418;2022-08-24T01:17:01;18.00;99.90
12115;DHT22;6121;49.810;6.418;2022-08-24T01:19:49;18.20;99.90
12115;DHT22;6121;49.810;6.418;2022-08-24T01:24:54;18.40;99.90
12115;DHT22;6121;49.810;6.418;2022-08-24T01:27:20;18.20;99.90
12115;DHT22;6121;49.810;6.418;2022-08-24T01:29:46;17.90;99.90
12115;DHT22;6121;49.810;6.418;2022-08-24T01:32:13;17.90;99.90
12115;DHT22;6121;49.810;6.418;2022-08-24T01:34:39;17.80;99.90
12115;DHT22;6121;49.810;6.418;2022-08-24T01:37:07;17.80;99.90
12115;DHT22;6121;49.810;6.418;2022-08-24T01:39:38;17.70;99.90
12115;DHT22;6121;49.810;6.418;2022-08-24T01:42:04;17.80;99.90
12115;DHT22;6121;49.810;6.418;2022-08-24T01:44:32;17.90;99.90
12115;DHT22;6121;49.810;6.418;2022-08-24T01:47:02;18.00;99.90
12115;DHT22;6121;49.810;6.418;2022-08-24T01:49:31;17.70;99.90
12115;DHT22;6121;49.810;6.418;2022-08-24T01:51:58;17.80;99.90
12115;DHT22;6121;49.810;6.418;2022-08-24T01:54:25;18.00;99.90
12115;DHT22;6121;49.810;6.418;2022-08-24T01:56:51;17.80;99.90
12115;DHT22;6121;49.810;6.418;2022-08-24T01:59:17;17.80;99.90
12115;DHT22;6121;49.810;6.418;2022-08-24T02:01:47;17.90;99.90
12115;DHT22;6121;49.810;6.418;2022-08-24T02:04:14;17.90;99.90
12115;DHT22;6121;49.810;6.418;2022-08-24T02:06:40;17.90;99.90
12115;DHT22;6121;49.810;6.418;2022-08-24T02:09:06;17.70;99.90
12115;DHT22;6121;49.810;6.418;2022-08-24T02:11:32;17.70;99.90
12115;DHT22;6121;49.810;6.418;2022-08-24T02:13:58;17.80;99.90
12115;DHT22;6121;49.810;6.418;2022-08-24T02:16:25;18.00;99.90
12115;DHT22;6121;49.810;6.418;2022-08-24T02:18:51;17.80;99.90
12115;DHT22;6121;49.810;6.418;2022-08-24T02:21:17;17.60;99.90
12115;DHT22;6121;49.810;6.418;2022-08-24T02:23:43;17.60;99.90
12115;DHT22;6121;49.810;6.418;2022-08-24T02:26:10;17.50;99.90
12115;DHT22;6121;49.810;6.418;2022-08-24T02:28:36;17.50;99.90
12115;DHT22;6121;49.810;6.418;2022-08-24T02:31:04;17.50;99.90
12115;DHT22;6121;49.810;6.418;2022-08-24T02:33:31;17.30;99.90
12115;DHT22;6121;49.810;6.418;2022-08-24T02:35:57;17.40;99.90
12115;DHT22;6121;49.810;6.418;2022-08-24T02:38:22;17.30;99.90
12115;DHT22;6121;49.810;6.418;2022-08-24T02:40:48;17.40;99.90
12115;DHT22;6121;49.810;6.418;2022-08-24T02:43:14;17.20;99.90
12115;DHT22;6121;49.810;6.418;2022-08-24T02:45:42;17.30;99.90
12115;DHT22;6121;49.810;6.418;2022-08-24T02:48:08;17.50;99.90
12115;DHT22;6121;49.810;6.418;2022-08-24T02:50:40;17.40;99.90
12115;DHT22;6121;49.810;6.418;2022-08-24T02:53:07;17.50;99.90
12115;DHT22;6121;49.810;6.418;2022-08-24T02:55:33;17.70;99.90
12115;DHT22;6121;49.810;6.418;2022-08-24T02:57:58;17.30;99.90
12115;DHT22;6121;49.810;6.418;2022-08-24T03:00:24;17.10;99.90
12115;DHT22;6121;49.810;6.418;2022-08-24T03:02:52;17.00;99.90
12115;DHT22;6121;49.810;6.418;2022-08-24T03:05:18;16.90;99.90
12115;DHT22;6121;49.810;6.418;2022-08-24T03:07:45;17.00;99.90
12115;DHT22;6121;49.810;6.418;2022-08-24T03:10:10;17.00;99.90
12115;DHT22;6121;49.810;6.418;2022-08-24T03:12:36;17.10;99.90
12115;DHT22;6121;49.810;6.418;2022-08-24T03:15:05;17.00;99.90
12115;DHT22;6121;49.810;6.418;2022-08-24T03:17:31;17.10;99.90
12115;DHT22;6121;49.810;6.418;2022-08-24T03:19:58;17.00;99.90
12115;DHT22;6121;49.810;6.418;2022-08-24T03:22:25;17.00;99.90
12115;DHT22;6121;49.810;6.418;2022-08-24T03:24:51;16.90;99.90
12115;DHT22;6121;49.810;6.418;2022-08-24T03:27:17;16.90;99.90
12115;DHT22;6121;49.810;6.418;2022-08-24T03:29:43;17.10;99.90
12115;DHT22;6121;49.810;6.418;2022-08-24T03:32:09;17.00;99.90
12115;DHT22;6121;49.810;6.418;2022-08-24T03:34:34;16.80;99.90
12115;DHT22;6121;49.810;6.418;2022-08-24T03:37:01;16.80;99.90
12115;DHT22;6121;49.810;6.418;2022-08-24T03:39:27;16.70;99.90
12115;DHT22;6121;49.810;6.418;2022-08-24T03:41:53;16.60;99.90
12115;DHT22;6121;49.810;6.418;2022-08-24T03:44:18;16.60;99.90
12115;DHT22;6121;49.810;6.418;2022-08-24T03:46:44;16.60;99.90
12115;DHT22;6121;49.810;6.418;2022-08-24T03:49:11;16.60;99.90
12115;DHT22;6121;49.810;6.418;2022-08-24T03:51:37;16.60;99.90
12115;DHT22;6121;49.810;6.418;2022-08-24T03:54:05;16.50;99.90
12115;DHT22;6121;49.810;6.418;2022-08-24T03:56:31;16.80;99.90
12115;DHT22;6121;49.810;6.418;2022-08-24T03:58:57;16.90;99.90
12115;DHT22;6121;49.810;6.418;2022-08-24T04:01:23;16.70;99.90
12115;DHT22;6121;49.810;6.418;2022-08-24T04:03:49;16.60;99.90
12115;DHT22;6121;49.810;6.418;2022-08-24T04:06:18;16.80;99.90
12115;DHT22;6121;49.810;6.418;2022-08-24T04:08:44;16.80;99.90
12115;DHT22;6121;49.810;6.418;2022-08-24T04:11:14;16.70;99.90
12115;DHT22;6121;49.810;6.418;2022-08-24T04:13:41;16.50;99.90
12115;DHT22;6121;49.810;6.418;2022-08-24T04:16:12;16.60;99.90
12115;DHT22;6121;49.810;6.418;2022-08-24T04:18:39;16.40;99.90
12115;DHT22;6121;49.810;6.418;2022-08-24T04:21:05;16.60;99.90
12115;DHT22;6121;49.810;6.418;2022-08-24T04:23:31;16.30;99.90
12115;DHT22;6121;49.810;6.418;2022-08-24T04:26:03;16.30;99.90
12115;DHT22;6121;49.810;6.418;2022-08-24T04:28:29;16.30;99.90
12115;DHT22;6121;49.810;6.418;2022-08-24T04:30:55;16.30;99.90
12115;DHT22;6121;49.810;6.418;2022-08-24T04:33:22;16.30;99.90
12115;DHT22;6121;49.810;6.418;2022-08-24T04:35:48;16.30;99.90
12115;DHT22;6121;49.810;6.418;2022-08-24T04:38:18;16.10;99.90
12115;DHT22;6121;49.810;6.418;2022-08-24T04:40:45;16.10;99.90
12115;DHT22;6121;49.810;6.418;2022-08-24T04:43:12;16.10;99.90
12115;DHT22;6121;49.810;6.418;2022-08-24T04:45:41;16.20;99.90
12115;DHT22;6121;49.810;6.418;2022-08-24T04:48:07;16.30;99.90
12115;DHT22;6121;49.810;6.418;2022-08-24T04:50:35;16.30;99.90
12115;DHT22;6121;49.810;6.418;2022-08-24T04:53:01;16.50;99.90
12115;DHT22;6121;49.810;6.418;2022-08-24T04:55:27;16.30;99.90
12115;DHT22;6121;49.810;6.418;2022-08-24T04:57:53;16.10;99.90
12115;DHT22;6121;49.810;6.418;2022-08-24T05:00:19;16.30;99.90
12115;DHT22;6121;49.810;6.418;2022-08-24T05:02:44;16.30;99.90
12115;DHT22;6121;49.810;6.418;2022-08-24T05:05:11;16.30;99.90
12115;DHT22;6121;49.810;6.418;2022-08-24T05:07:37;16.20;99.90
12115;DHT22;6121;49.810;6.418;2022-08-24T05:10:04;16.30;99.90
12115;DHT22;6121;49.810;6.418;2022-08-24T05:12:31;16.30;99.90
12115;DHT22;6121;49.810;6.418;2022-08-24T05:14:57;16.40;99.90
12115;DHT22;6121;49.810;6.418;2022-08-24T05:17:24;16.30;99.90
12115;DHT22;6121;49.810;6.418;2022-08-24T05:19:50;16.30;99.90
12115;DHT22;6121;49.810;6.418;2022-08-24T05:22:16;16.20;99.90
12115;DHT22;6121;49.810;6.418;2022-08-24T05:24:41;16.20;99.90
12115;DHT22;6121;49.810;6.418;2022-08-24T05:27:07;16.20;99.90
12115;DHT22;6121;49.810;6.418;2022-08-24T05:29:33;16.30;99.90
12115;DHT22;6121;49.810;6.418;2022-08-24T05:31:59;16.40;99.90
12115;DHT22;6121;49.810;6.418;2022-08-24T05:34:25;16.30;99.90
12115;DHT22;6121;49.810;6.418;2022-08-24T05:36:51;16.30;99.90
12115;DHT22;6121;49.810;6.418;2022-08-24T05:39:16;16.20;99.90
12115;DHT22;6121;49.810;6.418;2022-08-24T05:41:44;16.10;99.90
12115;DHT22;6121;49.810;6.418;2022-08-24T05:44:11;16.20;99.90
12115;DHT22;6121;49.810;6.418;2022-08-24T05:46:37;16.30;99.90
12115;DHT22;6121;49.810;6.418;2022-08-24T05:49:03;16.50;99.90
12115;DHT22;6121;49.810;6.418;2022-08-24T05:51:28;16.90;99.90
12115;DHT22;6121;49.810;6.418;2022-08-24T05:53:55;17.00;99.90
12115;DHT22;6121;49.810;6.418;2022-08-24T05:56:21;17.10;99.90
12115;DHT22;6121;49.810;6.418;2022-08-24T05:58:47;17.40;99.90
12115;DHT22;6121;49.810;6.418;2022-08-24T06:01:16;17.40;99.90
12115;DHT22;6121;49.810;6.418;2022-08-24T06:03:42;17.50;99.90
12115;DHT22;6121;49.810;6.418;2022-08-24T06:06:09;17.50;99.90
12115;DHT22;6121;49.810;6.418;2022-08-24T06:08:40;17.60;99.90
12115;DHT22;6121;49.810;6.418;2022-08-24T06:11:06;17.70;99.90
12115;DHT22;6121;49.810;6.418;2022-08-24T06:13:32;17.50;99.90
12115;DHT22;6121;49.810;6.418;2022-08-24T06:16:06;17.70;99.90
12115;DHT22;6121;49.810;6.418;2022-08-24T06:18:33;17.80;99.90
12115;DHT22;6121;49.810;6.418;2022-08-24T06:21:06;17.90;99.90
12115;DHT22;6121;49.810;6.418;2022-08-24T06:23:32;18.00;99.90
12115;DHT22;6121;49.810;6.418;2022-08-24T06:25:58;18.10;99.90
12115;DHT22;6121;49.810;6.418;2022-08-24T06:28:43;18.30;99.90
12115;DHT22;6121;49.810;6.418;2022-08-24T06:31:09;18.50;99.90
12115;DHT22;6121;49.810;6.418;2022-08-24T06:33:35;18.80;99.90
12115;DHT22;6121;49.810;6.418;2022-08-24T06:36:00;19.00;99.90
12115;DHT22;6121;49.810;6.418;2022-08-24T06:38:26;19.20;99.90
12115;DHT22;6121;49.810;6.418;2022-08-24T06:40:51;19.00;99.90
12115;DHT22;6121;49.810;6.418;2022-08-24T06:43:17;19.20;99.90
12115;DHT22;6121;49.810;6.418;2022-08-24T06:45:43;19.40;99.90
12115;DHT22;6121;49.810;6.418;2022-08-24T06:48:09;19.50;99.90
12115;DHT22;6121;49.810;6.418;2022-08-24T06:50:35;19.50;99.90
12115;DHT22;6121;49.810;6.418;2022-08-24T06:53:01;19.80;99.90
12115;DHT22;6121;49.810;6.418;2022-08-24T06:55:27;19.60;99.90
12115;DHT22;6121;49.810;6.418;2022-08-24T06:57:54;19.90;99.90
12115;DHT22;6121;49.810;6.418;2022-08-24T07:00:21;20.00;99.90
12115;DHT22;6121;49.810;6.418;2022-08-24T07:02:46;20.40;99.90
12115;DHT22;6121;49.810;6.418;2022-08-24T07:05:13;20.40;99.90
12115;DHT22;6121;49.810;6.418;2022-08-24T07:07:38;20.60;99.90
12115;DHT22;6121;49.810;6.418;2022-08-24T07:10:05;20.40;99.90
12115;DHT22;6121;49.810;6.418;2022-08-24T07:12:32;20.60;99.90
12115;DHT22;6121;49.810;6.418;2022-08-24T07:14:58;20.90;99.90
12115;DHT22;6121;49.810;6.418;2022-08-24T07:17:24;21.00;99.90
12115;DHT22;6121;49.810;6.418;2022-08-24T07:19:49;21.20;99.90
12115;DHT22;6121;49.810;6.418;2022-08-24T07:22:15;21.50;99.90
12115;DHT22;6121;49.810;6.418;2022-08-24T07:24:41;21.40;99.90
12115;DHT22;6121;49.810;6.418;2022-08-24T07:27:06;21.80;99.90
12115;DHT22;6121;49.810;6.418;2022-08-24T07:29:32;22.10;99.90
12115;DHT22;6121;49.810;6.418;2022-08-24T07:31:57;22.50;99.90
12115;DHT22;6121;49.810;6.418;2022-08-24T07:34:23;22.70;99.90
12115;DHT22;6121;49.810;6.418;2022-08-24T07:36:49;22.80;99.90
12115;DHT22;6121;49.810;6.418;2022-08-24T07:39:16;23.10;99.90
12115;DHT22;6121;49.810;6.418;2022-08-24T07:41:43;23.10;99.90
12115;DHT22;6121;49.810;6.418;2022-08-24T07:44:10;23.20;99.90
12115;DHT22;6121;49.810;6.418;2022-08-24T07:46:38;23.50;99.90
12115;DHT22;6121;49.810;6.418;2022-08-24T07:49:05;23.60;99.90
12115;DHT22;6121;49.810;6.418;2022-08-24T07:51:32;23.70;99.90
12115;DHT22;6121;49.810;6.418;2022-08-24T07:53:58;23.70;99.90
12115;DHT22;6121;49.810;6.418;2022-08-24T07:56:24;24.10;99.90
12115;DHT22;6121;49.810;6.418;2022-08-24T07:58:49;24.30;99.90
12115;DHT22;6121;49.810;6.418;2022-08-24T08:01:15;24.60;99.90
12115;DHT22;6121;49.810;6.418;2022-08-24T08:03:42;24.90;99.90
12115;DHT22;6121;49.810;6.418;2022-08-24T08:06:09;25.20;99.90
12115;DHT22;6121;49.810;6.418;2022-08-24T08:08:39;25.60;99.90
12115;DHT22;6121;49.810;6.418;2022-08-24T08:11:06;25.60;99.70
12115;DHT22;6121;49.810;6.418;2022-08-24T08:13:33;26.00;99.20
12115;DHT22;6121;49.810;6.418;2022-08-24T08:16:00;26.30;98.90
12115;DHT22;6121;49.810;6.418;2022-08-24T08:18:27;26.70;98.20
12115;DHT22;6121;49.810;6.418;2022-08-24T08:20:53;27.00;97.60
12115;DHT22;6121;49.810;6.418;2022-08-24T08:23:19;27.30;96.90
12115;DHT22;6121;49.810;6.418;2022-08-24T08:26:04;27.40;96.30
12115;DHT22;6121;49.810;6.418;2022-08-24T08:28:30;27.60;95.90
12115;DHT22;6121;49.810;6.418;2022-08-24T08:31:01;27.90;95.40
12115;DHT22;6121;49.810;6.418;2022-08-24T08:33:29;28.10;95.30
12115;DHT22;6121;49.810;6.418;2022-08-24T08:36:18;28.40;94.40
12115;DHT22;6121;49.810;6.418;2022-08-24T08:38:45;28.60;93.30
12115;DHT22;6121;49.810;6.418;2022-08-24T08:57:22;30.00;89.50
12115;DHT22;6121;49.810;6.418;2022-08-24T09:10:56;30.60;85.00
12115;DHT22;6121;49.810;6.418;2022-08-24T09:13:47;30.90;83.30
12115;DHT22;6121;49.810;6.418;2022-08-24T09:19:21;31.50;82.90
12115;DHT22;6121;49.810;6.418;2022-08-24T09:22:17;31.80;81.40
12115;DHT22;6121;49.810;6.418;2022-08-24T09:33:07;32.50;76.90
12115;DHT22;6121;49.810;6.418;2022-08-24T09:41:44;32.70;72.80
12115;DHT22;6121;49.810;6.418;2022-08-24T09:48:27;33.40;72.30
12115;DHT22;6121;49.810;6.418;2022-08-24T09:56:07;34.30;68.10
12115;DHT22;6121;49.810;6.418;2022-08-24T10:01:39;34.30;66.70
12115;DHT22;6121;49.810;6.418;2022-08-24T10:06:53;34.80;64.40
12115;DHT22;6121;49.810;6.418;2022-08-24T10:09:52;35.00;64.00
12115;DHT22;6121;49.810;6.418;2022-08-24T10:14:52;35.50;62.20
12115;DHT22;6121;49.810;6.418;2022-08-24T10:20:22;36.00;59.60
12115;DHT22;6121;49.810;6.418;2022-08-24T10:25:37;40.10;56.30
12115;DHT22;6121;49.810;6.418;2022-08-24T10:33:22;42.40;43.40
12115;DHT22;6121;49.810;6.418;2022-08-24T10:47:05;38.10;46.30
12115;DHT22;6121;49.810;6.418;2022-08-24T10:54:39;37.10;45.20
12115;DHT22;6121;49.810;6.418;2022-08-24T10:57:34;37.30;46.40
12115;DHT22;6121;49.810;6.418;2022-08-24T11:00:10;37.20;45.10
12115;DHT22;6121;49.810;6.418;2022-08-24T11:02:41;37.20;45.70
12115;DHT22;6121;49.810;6.418;2022-08-24T11:05:26;37.20;45.50
12115;DHT22;6121;49.810;6.418;2022-08-24T11:07:57;37.20;44.70
12115;DHT22;6121;49.810;6.418;2022-08-24T11:13:31;36.80;44.10
12115;DHT22;6121;49.810;6.418;2022-08-24T11:15:59;36.30;44.20
12115;DHT22;6121;49.810;6.418;2022-08-24T11:18:49;36.40;43.80
12115;DHT22;6121;49.810;6.418;2022-08-24T11:21:33;36.20;43.60
12115;DHT22;6121;49.810;6.418;2022-08-24T11:24:22;36.10;44.30
12115;DHT22;6121;49.810;6.418;2022-08-24T11:26:59;36.50;44.50
12115;DHT22;6121;49.810;6.418;2022-08-24T11:32:45;37.00;43.70
12115;DHT22;6121;49.810;6.418;2022-08-24T11:35:23;37.30;44.30
12115;DHT22;6121;49.810;6.418;2022-08-24T11:37:51;37.10;43.80
12115;DHT22;6121;49.810;6.418;2022-08-24T11:40:26;36.90;43.60
12115;DHT22;6121;49.810;6.418;2022-08-24T11:43:14;36.90;44.20
12115;DHT22;6121;49.810;6.418;2022-08-24T11:46:16;37.00;44.70
12115;DHT22;6121;49.810;6.418;2022-08-24T11:51:33;37.40;45.20
12115;DHT22;6121;49.810;6.418;2022-08-24T11:54:15;37.40;44.90
12115;DHT22;6121;49.810;6.418;2022-08-24T12:02:13;37.20;44.00
12115;DHT22;6121;49.810;6.418;2022-08-24T12:07:50;36.60;44.40
12115;DHT22;6121;49.810;6.418;2022-08-24T12:10:49;36.70;44.40
12115;DHT22;6121;49.810;6.418;2022-08-24T12:13:37;35.90;44.60
12115;DHT22;6121;49.810;6.418;2022-08-24T12:19:02;36.20;44.90
12115;DHT22;6121;49.810;6.418;2022-08-24T12:21:31;36.40;45.20
12115;DHT22;6121;49.810;6.418;2022-08-24T12:24:07;36.00;44.50
12115;DHT22;6121;49.810;6.418;2022-08-24T12:29:15;35.40;45.20
12115;DHT22;6121;49.810;6.418;2022-08-24T12:31:45;35.40;46.00
12115;DHT22;6121;49.810;6.418;2022-08-24T12:35:03;35.30;45.90
12115;DHT22;6121;49.810;6.418;2022-08-24T12:39:48;34.60;46.00
12115;DHT22;6121;49.810;6.418;2022-08-24T12:42:24;34.60;46.30
12115;DHT22;6121;49.810;6.418;2022-08-24T12:44:58;34.40;45.70
12115;DHT22;6121;49.810;6.418;2022-08-24T12:47:33;34.40;46.30
12115;DHT22;6121;49.810;6.418;2022-08-24T13:01:19;34.30;46.50
12115;DHT22;6121;49.810;6.418;2022-08-24T13:03:48;34.30;46.60
12115;DHT22;6121;49.810;6.418;2022-08-24T13:08:46;34.40;45.70
12115;DHT22;6121;49.810;6.418;2022-08-24T13:11:29;34.30;45.70
12115;DHT22;6121;49.810;6.418;2022-08-24T13:16:48;34.10;45.50
12115;DHT22;6121;49.810;6.418;2022-08-24T13:19:31;34.00;45.60
12115;DHT22;6121;49.810;6.418;2022-08-24T13:21:58;34.00;45.90
12115;DHT22;6121;49.810;6.418;2022-08-24T13:29:40;33.60;46.50
12115;DHT22;6121;49.810;6.418;2022-08-24T13:32:14;33.70;46.50
12115;DHT22;6121;49.810;6.418;2022-08-24T13:34:44;33.70;46.40
12115;DHT22;6121;49.810;6.418;2022-08-24T13:37:15;33.80;46.00
12115;DHT22;6121;49.810;6.418;2022-08-24T13:40:16;33.50;45.90
12115;DHT22;6121;49.810;6.418;2022-08-24T13:43:23;33.60;47.00
12115;DHT22;6121;49.810;6.418;2022-08-24T13:45:57;33.70;46.70
12115;DHT22;6121;49.810;6.418;2022-08-24T14:04:46;33.70;45.00
12115;DHT22;6121;49.810;6.418;2022-08-24T14:07:32;33.60;45.70
12115;DHT22;6121;49.810;6.418;2022-08-24T14:13:14;33.70;45.40
12115;DHT22;6121;49.810;6.418;2022-08-24T14:19:09;33.50;45.50
12115;DHT22;6121;49.810;6.418;2022-08-24T14:21:56;33.30;45.80
12115;DHT22;6121;49.810;6.418;2022-08-24T14:24:38;33.10;46.30
12115;DHT22;6121;49.810;6.418;2022-08-24T14:29:42;33.10;46.40
12115;DHT22;6121;49.810;6.418;2022-08-24T14:32:27;33.10;46.00
12115;DHT22;6121;49.810;6.418;2022-08-24T14:38:13;33.00;46.40
12115;DHT22;6121;49.810;6.418;2022-08-24T14:43:49;33.00;46.40
12115;DHT22;6121;49.810;6.418;2022-08-24T14:49:51;32.90;46.40
12115;DHT22;6121;49.810;6.418;2022-08-24T14:52:41;32.90;46.60
12115;DHT22;6121;49.810;6.418;2022-08-24T15:01:22;32.90;46.20
12115;DHT22;6121;49.810;6.418;2022-08-24T15:06:50;32.90;45.90
12115;DHT22;6121;49.810;6.418;2022-08-24T15:09:26;32.90;46.60
12115;DHT22;6121;49.810;6.418;2022-08-24T15:11:58;33.00;45.70
12115;DHT22;6121;49.810;6.418;2022-08-24T15:14:40;32.90;45.30
12115;DHT22;6121;49.810;6.418;2022-08-24T15:17:13;32.90;45.80
12115;DHT22;6121;49.810;6.418;2022-08-24T15:20:08;32.90;45.50
12115;DHT22;6121;49.810;6.418;2022-08-24T15:22:56;32.70;45.40
12115;DHT22;6121;49.810;6.418;2022-08-24T15:25:30;32.70;45.70
12115;DHT22;6121;49.810;6.418;2022-08-24T15:28:10;32.80;46.30
12115;DHT22;6121;49.810;6.418;2022-08-24T15:30:37;32.70;46.10
12115;DHT22;6121;49.810;6.418;2022-08-24T15:33:11;32.80;46.10
12115;DHT22;6121;49.810;6.418;2022-08-24T15:35:43;32.80;46.00
12115;DHT22;6121;49.810;6.418;2022-08-24T15:38:22;32.80;46.20
12115;DHT22;6121;49.810;6.418;2022-08-24T15:40:51;32.90;46.00
12115;DHT22;6121;49.810;6.418;2022-08-24T15:43:18;32.90;45.30
12115;DHT22;6121;49.810;6.418;2022-08-24T15:45:48;33.00;45.00
12115;DHT22;6121;49.810;6.418;2022-08-24T15:48:18;33.00;45.00
12115;DHT22;6121;49.810;6.418;2022-08-24T15:50:46;33.00;45.20
12115;DHT22;6121;49.810;6.418;2022-08-24T15:53:34;32.90;45.00
12115;DHT22;6121;49.810;6.418;2022-08-24T15:58:45;32.90;44.70
12115;DHT22;6121;49.810;6.418;2022-08-24T16:04:06;32.90;44.60
12115;DHT22;6121;49.810;6.418;2022-08-24T16:15:22;32.50;44.70
12115;DHT22;6121;49.810;6.418;2022-08-24T16:17:25;32.40;44.70
12115;DHT22;6121;49.810;6.418;2022-08-24T16:19:55;32.40;44.30
12115;DHT22;6121;49.810;6.418;2022-08-24T16:22:52;32.40;45.00
12115;DHT22;6121;49.810;6.418;2022-08-24T16:25:34;32.30;44.50
12115;DHT22;6121;49.810;6.418;2022-08-24T16:36:04;32.30;44.90
12115;DHT22;6121;49.810;6.418;2022-08-24T16:38:31;32.20;45.10
12115;DHT22;6121;49.810;6.418;2022-08-24T16:41:00;32.20;45.10
12115;DHT22;6121;49.810;6.418;2022-08-24T16:43:27;32.20;44.90
12115;DHT22;6121;49.810;6.418;2022-08-24T16:45:53;32.20;44.60
12115;DHT22;6121;49.810;6.418;2022-08-24T16:48:19;32.10;45.80
12115;DHT22;6121;49.810;6.418;2022-08-24T16:50:45;32.00;46.50
12115;DHT22;6121;49.810;6.418;2022-08-24T16:53:11;31.80;49.70
12115;DHT22;6121;49.810;6.418;2022-08-24T16:55:37;31.70;47.70
12115;DHT22;6121;49.810;6.418;2022-08-24T16:58:04;31.70;46.50
12115;DHT22;6121;49.810;6.418;2022-08-24T17:00:29;31.70;45.80
12115;DHT22;6121;49.810;6.418;2022-08-24T17:02:55;31.60;47.80
12115;DHT22;6121;49.810;6.418;2022-08-24T17:05:21;31.70;46.20
12115;DHT22;6121;49.810;6.418;2022-08-24T17:07:47;31.70;46.00
12115;DHT22;6121;49.810;6.418;2022-08-24T17:10:14;31.70;46.10
12115;DHT22;6121;49.810;6.418;2022-08-24T17:12:40;31.60;48.40
12115;DHT22;6121;49.810;6.418;2022-08-24T17:15:09;31.50;46.40
12115;DHT22;6121;49.810;6.418;2022-08-24T17:17:36;31.60;46.00
12115;DHT22;6121;49.810;6.418;2022-08-24T17:20:05;31.60;46.60
12115;DHT22;6121;49.810;6.418;2022-08-24T17:22:31;31.60;46.60
12115;DHT22;6121;49.810;6.418;2022-08-24T17:24:56;31.40;47.20
12115;DHT22;6121;49.810;6.418;2022-08-24T17:27:26;31.40;48.30
12115;DHT22;6121;49.810;6.418;2022-08-24T17:29:53;31.30;47.60
12115;DHT22;6121;49.810;6.418;2022-08-24T17:32:18;31.10;49.10
12115;DHT22;6121;49.810;6.418;2022-08-24T17:34:44;31.20;47.30
12115;DHT22;6121;49.810;6.418;2022-08-24T17:37:10;31.20;47.70
12115;DHT22;6121;49.810;6.418;2022-08-24T17:39:36;31.10;47.50
12115;DHT22;6121;49.810;6.418;2022-08-24T17:42:02;31.00;48.60
12115;DHT22;6121;49.810;6.418;2022-08-24T17:44:30;30.80;50.10
12115;DHT22;6121;49.810;6.418;2022-08-24T17:46:59;30.80;48.10
12115;DHT22;6121;49.810;6.418;2022-08-24T17:49:26;30.80;48.30
12115;DHT22;6121;49.810;6.418;2022-08-24T17:51:52;30.70;48.60
12115;DHT22;6121;49.810;6.418;2022-08-24T17:54:19;30.50;51.00
12115;DHT22;6121;49.810;6.418;2022-08-24T17:56:46;30.40;51.70
12115;DHT22;6121;49.810;6.418;2022-08-24T17:59:16;30.20;52.00
12115;DHT22;6121;49.810;6.418;2022-08-24T18:02:03;30.10;51.80
12115;DHT22;6121;49.810;6.418;2022-08-24T18:04:31;30.10;51.80
12115;DHT22;6121;49.810;6.418;2022-08-24T18:07:02;30.10;52.30
12115;DHT22;6121;49.810;6.418;2022-08-24T18:09:38;30.00;52.20
12115;DHT22;6121;49.810;6.418;2022-08-24T18:12:06;29.90;52.10
12115;DHT22;6121;49.810;6.418;2022-08-24T18:14:32;29.70;51.90
12115;DHT22;6121;49.810;6.418;2022-08-24T18:17:02;29.70;52.60
12115;DHT22;6121;49.810;6.418;2022-08-24T18:19:29;29.60;53.10
12115;DHT22;6121;49.810;6.418;2022-08-24T18:21:55;29.50;53.20
12115;DHT22;6121;49.810;6.418;2022-08-24T18:24:21;29.40;54.20
12115;DHT22;6121;49.810;6.418;2022-08-24T18:26:47;29.20;55.30
12115;DHT22;6121;49.810;6.418;2022-08-24T18:29:18;29.00;56.00
12115;DHT22;6121;49.810;6.418;2022-08-24T18:31:46;28.90;56.50
12115;DHT22;6121;49.810;6.418;2022-08-24T18:34:18;28.70;57.40
12115;DHT22;6121;49.810;6.418;2022-08-24T18:36:44;28.60;58.10
12115;DHT22;6121;49.810;6.418;2022-08-24T18:39:09;28.50;58.60
12115;DHT22;6121;49.810;6.418;2022-08-24T18:41:38;28.30;59.00
12115;DHT22;6121;49.810;6.418;2022-08-24T18:44:06;28.10;59.40
12115;DHT22;6121;49.810;6.418;2022-08-24T18:46:33;27.90;59.80
12115;DHT22;6121;49.810;6.418;2022-08-24T18:48:59;27.80;59.90
12115;DHT22;6121;49.810;6.418;2022-08-24T18:51:26;27.80;60.50
12115;DHT22;6121;49.810;6.418;2022-08-24T18:53:59;27.70;60.40
12115;DHT22;6121;49.810;6.418;2022-08-24T18:56:25;27.60;60.50
12115;DHT22;6121;49.810;6.418;2022-08-24T18:58:51;27.60;60.70
12115;DHT22;6121;49.810;6.418;2022-08-24T19:01:18;27.40;60.80
12115;DHT22;6121;49.810;6.418;2022-08-24T19:03:44;27.20;61.60
12115;DHT22;6121;49.810;6.418;2022-08-24T19:06:10;26.90;62.70
12115;DHT22;6121;49.810;6.418;2022-08-24T19:08:36;26.80;62.90
12115;DHT22;6121;49.810;6.418;2022-08-24T19:11:01;26.80;63.20
12115;DHT22;6121;49.810;6.418;2022-08-24T19:13:27;26.60;63.70
12115;DHT22;6121;49.810;6.418;2022-08-24T19:15:53;26.20;64.30
12115;DHT22;6121;49.810;6.418;2022-08-24T19:18:20;26.30;64.50
12115;DHT22;6121;49.810;6.418;2022-08-24T19:20:48;26.40;64.20
12115;DHT22;6121;49.810;6.418;2022-08-24T19:23:26;26.30;63.60
12115;DHT22;6121;49.810;6.418;2022-08-24T19:25:53;26.40;63.50